Time;durP1;ratioP1;P1;durP2;ratioP2;P2;SDS_P1;SDS_P2;PMS_P1;PMS_P2;Temp;Humidity;BMP_temperature;BMP_pressure;BME280_temperature;BME280_humidity;BME280_pressure;Samples;Min_cycle;Max_cycle;Signal;HPM_P1;HPM_P2
2023/10/19 00:26:00;;;;;;;21.65;15.43;;;11.50;99.90;;;;;;4966510;29;20030;-79
2023/10/19 05:55:35;;;;;;;25.85;17.13;;;11.00;99.90;;;;;;5689302;23;20052;-77
2023/10/19 05:58:05;;;;;;;27.10;17.50;;;11.10;99.90;;;;;;4944657;29;20034;-75
2023/10/19 06:00:31;;;;;;;27.00;17.38;;;11.10;99.90;;;;;;4928481;29;20055;-75
2023/10/19 06:03:00;;;;;;;28.33;18.92;;;11.10;99.90;;;;;;4926496;29;20016;-78
2023/10/19 06:05:26;;;;;;;30.00;16.83;;;11.20;99.90;;;;;;4927230;29;20023;-80
2023/10/19 06:07:55;;;;;;;23.58;16.20;;;11.20;99.90;;;;;;4911764;29;20043;-81
2023/10/19 06:10:28;;;;;;;23.33;15.93;;;11.20;99.90;;;;;;4944732;29;20031;-80
2023/10/19 06:12:54;;;;;;;23.77;16.65;;;11.30;99.90;;;;;;4912594;29;20305;-80
2023/10/19 06:15:22;;;;;;;27.15;17.05;;;11.40;99.90;;;;;;4944827;29;20023;-80
2023/10/19 06:18:43;;;;;;;26.60;17.08;;;11.50;99.90;;;;;;4912890;29;20016;-80
2023/10/19 06:21:24;;;;;;;29.55;17.48;;;11.60;99.90;;;;;;4939933;29;20030;-77
2023/10/19 06:23:52;;;;;;;28.02;17.20;;;11.60;99.90;;;;;;4888174;29;20060;-79
2023/10/19 06:26:22;;;;;;;33.30;16.45;;;11.60;99.90;;;;;;4893715;29;20385;-80
2023/10/19 06:29:10;;;;;;;28.25;16.10;;;11.70;99.90;;;;;;4893144;29;20045;-80
2023/10/19 06:31:37;;;;;;;28.52;15.20;;;11.80;99.90;;;;;;4892222;29;20032;-79
2023/10/19 06:34:17;;;;;;;27.50;14.90;;;11.80;99.90;;;;;;4909385;29;20028;-79
2023/10/19 06:37:11;;;;;;;33.45;17.17;;;11.90;99.90;;;;;;4893439;29;20046;-80
2023/10/19 06:40:00;;;;;;;30.42;15.05;;;11.90;99.90;;;;;;4887132;29;20096;-80
2023/10/19 06:42:26;;;;;;;29.27;16.33;;;12.00;99.90;;;;;;4890808;29;20219;-79
2023/10/19 06:44:55;;;;;;;27.98;15.50;;;12.00;99.90;;;;;;4894266;29;20036;-81
2023/10/19 06:47:30;;;;;;;24.05;13.90;;;12.00;99.90;;;;;;4893852;29;20027;-79
2023/10/19 06:50:16;;;;;;;22.75;13.48;;;12.00;99.90;;;;;;4908377;29;20043;-78
2023/10/19 06:52:48;;;;;;;23.23;12.95;;;12.10;99.90;;;;;;4893542;29;20028;-79
2023/10/19 06:55:25;;;;;;;24.02;13.60;;;12.10;99.90;;;;;;4889517;29;20025;-77
2023/10/19 06:57:58;;;;;;;22.50;14.00;;;12.20;99.90;;;;;;4887859;29;20044;-78
2023/10/19 07:01:05;;;;;;;17.25;12.00;;;12.30;99.90;;;;;;4889588;29;20031;-79
2023/10/19 07:03:39;;;;;;;24.27;12.65;;;12.30;99.90;;;;;;4819435;29;20232;-79
2023/10/19 07:06:13;;;;;;;21.98;12.98;;;12.50;99.90;;;;;;4888749;29;20100;-80
2023/10/19 07:08:58;;;;;;;19.77;11.70;;;12.60;99.90;;;;;;4875089;29;20041;-78
2023/10/19 07:11:27;;;;;;;21.77;11.55;;;12.60;99.90;;;;;;4883073;29;20044;-79
2023/10/19 07:13:53;;;;;;;18.60;11.07;;;12.70;99.90;;;;;;4877412;29;20069;-77
2023/10/19 07:16:31;;;;;;;18.60;10.48;;;12.70;99.90;;;;;;4877243;29;20092;-78
2023/10/19 07:18:59;;;;;;;20.70;12.18;;;12.70;99.90;;;;;;4877443;29;20033;-79
2023/10/19 07:21:25;;;;;;;22.47;12.30;;;12.70;99.90;;;;;;4908469;29;20361;-79
2023/10/19 07:24:18;;;;;;;20.40;12.80;;;12.70;99.90;;;;;;4894938;29;20326;-78
2023/10/19 07:27:03;;;;;;;19.60;12.30;;;12.80;99.90;;;;;;4877113;29;20068;-79
2023/10/19 07:29:33;;;;;;;18.45;10.80;;;12.80;99.90;;;;;;4876300;29;20310;-79
2023/10/19 07:31:59;;;;;;;20.25;11.70;;;12.90;99.90;;;;;;4909062;29;20037;-78
2023/10/19 07:34:27;;;;;;;18.83;12.73;;;13.00;99.90;;;;;;4893001;29;20032;-80
2023/10/19 07:36:59;;;;;;;18.38;11.68;;;13.00;99.90;;;;;;4878664;29;20043;-80
2023/10/19 07:39:29;;;;;;;18.33;11.40;;;13.10;99.90;;;;;;4893141;29;20059;-80
2023/10/19 07:41:58;;;;;;;17.50;11.18;;;13.30;99.90;;;;;;4893436;29;20103;-79
2023/10/19 07:44:32;;;;;;;17.25;11.73;;;13.40;99.90;;;;;;4877178;29;20040;-80
2023/10/19 07:47:06;;;;;;;18.67;11.02;;;13.60;99.90;;;;;;4876892;29;20035;-80
2023/10/19 07:49:38;;;;;;;19.00;11.32;;;13.70;99.90;;;;;;4877320;29;20059;-80
2023/10/19 07:52:14;;;;;;;18.85;11.30;;;13.80;99.90;;;;;;4880664;29;20104;-78
2023/10/19 07:54:43;;;;;;;15.13;10.73;;;14.00;99.90;;;;;;4892733;29;20129;-79
2023/10/19 07:57:12;;;;;;;16.60;10.63;;;14.10;99.90;;;;;;4891789;29;20060;-79
2023/10/19 07:59:58;;;;;;;15.73;10.20;;;14.20;99.90;;;;;;4892668;29;20262;-78
2023/10/19 08:02:28;;;;;;;15.40;10.70;;;14.30;99.90;;;;;;4891760;29;20033;-78
2023/10/19 08:05:02;;;;;;;18.35;10.95;;;14.40;99.90;;;;;;4881209;29;20069;-77
2023/10/19 08:07:34;;;;;;;14.57;9.27;;;14.50;99.90;;;;;;4897584;29;20041;-78
2023/10/19 08:10:36;;;;;;;18.00;10.15;;;14.60;99.90;;;;;;4892421;29;20315;-77
2023/10/19 08:13:12;;;;;;;16.15;10.23;;;14.60;99.90;;;;;;4884847;29;20119;-78
2023/10/19 08:16:07;;;;;;;15.93;9.85;;;14.60;99.90;;;;;;4856138;29;20044;-78
2023/10/19 08:18:35;;;;;;;16.73;9.77;;;14.60;99.90;;;;;;4876347;29;20095;-78
2023/10/19 08:21:28;;;;;;;14.70;9.68;;;14.60;99.90;;;;;;4895505;29;20046;-78
2023/10/19 08:23:57;;;;;;;13.77;9.45;;;14.60;99.90;;;;;;4890859;29;20036;-78
2023/10/19 08:26:41;;;;;;;12.65;8.90;;;14.60;99.90;;;;;;4891636;29;20245;-78
2023/10/19 08:29:12;;;;;;;12.88;8.75;;;14.80;99.90;;;;;;4891788;29;20338;-79
2023/10/19 08:31:42;;;;;;;12.20;8.63;;;14.90;99.90;;;;;;4876900;29;20032;-78
2023/10/19 08:34:19;;;;;;;15.60;8.90;;;15.10;99.90;;;;;;4891856;29;20293;-79
2023/10/19 08:36:53;;;;;;;12.90;8.73;;;15.40;99.90;;;;;;4896177;29;20092;-80
2023/10/19 08:39:37;;;;;;;12.07;7.93;;;15.60;99.90;;;;;;4876924;29;20310;-79
2023/10/19 08:42:04;;;;;;;9.18;7.30;;;15.80;99.90;;;;;;4899964;29;20037;-77
2023/10/19 08:44:41;;;;;;;13.50;7.97;;;16.00;99.90;;;;;;4874655;29;20041;-80
2023/10/19 08:47:08;;;;;;;11.10;7.22;;;16.00;99.90;;;;;;4875475;29;20033;-81
2023/10/19 08:49:43;;;;;;;12.25;6.93;;;16.10;99.90;;;;;;4874045;29;20109;-80
2023/10/19 08:52:09;;;;;;;9.57;6.85;;;16.20;99.90;;;;;;4882901;29;20288;-80
2023/10/19 08:54:38;;;;;;;15.18;7.57;;;16.20;99.90;;;;;;4877630;29;20314;-79
2023/10/19 08:57:06;;;;;;;15.48;7.38;;;16.30;99.90;;;;;;4910877;29;20052;-78
2023/10/19 09:02:27;;;;;;;13.40;6.28;;;16.30;99.90;;;;;;4884603;29;20048;-78
2023/10/19 09:04:59;;;;;;;12.55;6.38;;;16.50;99.90;;;;;;4903946;29;20087;-78
2023/10/19 09:07:54;;;;;;;11.88;6.47;;;16.60;99.90;;;;;;4907503;29;20048;-79
2023/10/19 09:11:06;;;;;;;9.63;6.03;;;16.80;99.90;;;;;;4895149;29;20043;-78
2023/10/19 09:13:48;;;;;;;10.85;5.63;;;17.00;99.90;;;;;;4886619;29;20063;-79
2023/10/19 09:16:33;;;;;;;10.77;5.30;;;17.30;99.90;;;;;;4891214;29;20033;-80
2023/10/19 09:19:59;;;;;;;9.00;5.05;;;17.40;99.90;;;;;;4907307;29;20035;-77
2023/10/19 09:22:44;;;;;;;7.93;5.25;;;17.50;99.90;;;;;;4900861;29;20234;-79
2023/10/19 09:25:14;;;;;;;12.00;6.05;;;17.90;99.90;;;;;;4902394;29;20044;-78
2023/10/19 09:27:51;;;;;;;;;;;;;;;;;;;;;
2023/10/19 09:33:56;;;;;;;11.23;5.75;;;18.50;99.90;;;;;;4908100;29;20040;-80
2023/10/19 09:36:43;;;;;;;8.40;5.72;;;18.70;99.90;;;;;;4881986;29;20037;-78
2023/10/19 09:39:13;;;;;;;10.60;4.88;;;18.80;99.90;;;;;;4875643;29;20310;-78
2023/10/19 09:41:59;;;;;;;10.45;4.78;;;18.90;99.90;;;;;;4890917;29;20334;-78
2023/10/19 09:47:51;;;;;;;8.13;4.82;;;18.90;99.90;;;;;;4907720;29;20024;-77
2023/10/19 09:50:54;;;;;;;9.57;5.40;;;19.00;99.90;;;;;;4894266;29;20385;-78
2023/10/19 09:53:44;;;;;;;7.88;4.90;;;19.10;99.90;;;;;;4907123;29;20218;-77
2023/10/19 09:59:51;;;;;;;;;;;18.80;99.90;;;;;;4901772;29;20407;-76
2023/10/19 10:02:18;;;;;;;13.50;7.53;;;18.70;99.90;;;;;;4886987;29;19964;-76
2023/10/19 10:04:49;;;;;;;12.52;6.28;;;18.80;99.90;;;;;;4889250;29;20354;-76
2023/10/19 10:07:19;;;;;;;9.43;4.88;;;18.70;99.90;;;;;;4902590;29;20043;-77
2023/10/19 10:09:46;;;;;;;9.88;5.47;;;18.80;99.90;;;;;;4890007;29;20249;-77
2023/10/19 10:12:26;;;;;;;9.27;4.97;;;18.90;99.90;;;;;;4906493;29;20036;-77
2023/10/19 10:15:18;;;;;;;7.47;4.75;;;18.90;99.90;;;;;;4876479;29;20100;-76
2023/10/19 10:17:53;;;;;;;7.70;4.57;;;18.90;99.90;;;;;;4906157;29;20336;-75
2023/10/19 10:21:08;;;;;;;8.65;4.00;;;18.80;99.90;;;;;;4894259;29;20027;-75
2023/10/19 10:23:59;;;;;;;7.90;3.90;;;18.80;99.90;;;;;;4905316;29;20033;-77
2023/10/19 10:26:30;;;;;;;11.95;4.63;;;18.80;99.90;;;;;;4874179;29;20076;-76
2023/10/19 10:29:23;;;;;;;4.95;2.92;;;18.90;99.90;;;;;;4906966;29;20044;-75
2023/10/19 10:32:14;;;;;;;7.93;3.45;;;18.80;99.90;;;;;;4906842;29;20340;-76
2023/10/19 10:34:42;;;;;;;8.57;3.78;;;18.80;99.90;;;;;;4906951;29;20117;-76
2023/10/19 10:37:59;;;;;;;5.03;3.10;;;18.90;99.90;;;;;;4890251;29;20033;-76
2023/10/19 10:40:25;;;;;;;4.40;2.78;;;19.00;99.90;;;;;;4891397;29;20033;-76
2023/10/19 10:43:27;;;;;;;6.53;3.20;;;18.90;99.90;;;;;;4910615;29;20382;-76
2023/10/19 10:46:03;;;;;;;5.50;3.22;;;18.80;99.90;;;;;;4910241;29;20045;-76
2023/10/19 10:48:41;;;;;;;5.28;3.33;;;18.70;99.90;;;;;;4909257;29;20234;-77
2023/10/19 10:51:24;;;;;;;5.60;3.50;;;18.50;99.90;;;;;;4909475;29;20203;-78
2023/10/19 10:53:59;;;;;;;6.50;3.58;;;18.20;99.90;;;;;;4910774;29;20028;-77
2023/10/19 10:56:25;;;;;;;5.85;3.90;;;18.00;99.90;;;;;;4893102;29;20044;-77
2023/10/19 10:58:54;;;;;;;6.30;3.78;;;18.00;99.90;;;;;;4910952;29;20250;-77
2023/10/19 11:01:32;;;;;;;5.53;4.13;;;18.00;99.90;;;;;;4877064;29;20020;-77
2023/10/19 11:04:10;;;;;;;6.22;4.38;;;18.00;99.90;;;;;;4893786;29;20219;-79
2023/10/19 11:06:56;;;;;;;10.17;5.03;;;17.90;99.90;;;;;;4910488;29;20143;-80
2023/10/19 11:09:22;;;;;;;8.57;4.97;;;17.80;99.90;;;;;;4893100;29;20099;-80
2023/10/19 11:11:49;;;;;;;11.70;6.32;;;17.90;99.90;;;;;;4910981;29;20036;-80
2023/10/19 11:14:33;;;;;;;14.38;7.22;;;17.80;99.90;;;;;;4905845;29;20032;-78
2023/10/19 11:17:45;;;;;;;14.13;6.85;;;17.70;99.90;;;;;;4896082;29;20031;-77
2023/10/19 11:20:40;;;;;;;14.27;7.35;;;17.70;99.90;;;;;;4908980;29;20364;-78
2023/10/19 11:23:06;;;;;;;14.95;7.13;;;17.60;99.90;;;;;;4910049;29;20028;-78
2023/10/19 11:25:38;;;;;;;14.32;7.03;;;17.60;99.90;;;;;;4877432;29;20028;-78
2023/10/19 11:28:22;;;;;;;11.43;6.65;;;17.50;99.90;;;;;;4894084;29;20310;-77
2023/10/19 11:30:48;;;;;;;10.20;6.63;;;17.30;99.90;;;;;;4894026;29;20088;-78
2023/10/19 11:33:48;;;;;;;12.65;6.95;;;17.20;99.90;;;;;;4878138;29;20117;-78
2023/10/19 11:36:33;;;;;;;12.40;6.45;;;17.20;99.90;;;;;;4902829;29;20036;-78
2023/10/19 11:39:12;;;;;;;10.35;6.90;;;17.10;99.90;;;;;;4909558;29;20276;-77
2023/10/19 11:41:44;;;;;;;11.65;6.63;;;17.10;99.90;;;;;;4877305;29;20282;-79
2023/10/19 11:44:09;;;;;;;11.88;6.65;;;17.10;99.90;;;;;;4892977;29;20330;-80
2023/10/19 11:46:35;;;;;;;15.30;7.55;;;17.10;99.90;;;;;;4893129;29;20036;-80
2023/10/19 11:49:03;;;;;;;10.60;6.57;;;17.00;99.90;;;;;;4909737;29;20037;-80
2023/10/19 11:51:54;;;;;;;12.90;6.85;;;17.00;99.90;;;;;;4895589;29;20341;-80
2023/10/19 11:54:19;;;;;;;12.93;7.85;;;17.00;99.90;;;;;;4904498;29;20025;-80
2023/10/19 11:57:12;;;;;;;12.07;6.82;;;17.00;99.90;;;;;;4892660;29;20409;-81
2023/10/19 11:59:52;;;;;;;12.90;7.10;;;16.90;99.90;;;;;;4877015;29;20039;-80
2023/10/19 12:02:27;;;;;;;11.38;7.35;;;16.90;99.90;;;;;;4892530;29;20341;-79
2023/10/19 12:04:53;;;;;;;12.77;7.13;;;16.80;99.90;;;;;;4877187;29;20036;-80
2023/10/19 12:07:21;;;;;;;13.98;6.95;;;16.80;99.90;;;;;;4877267;29;20032;-80
2023/10/19 12:09:50;;;;;;;10.68;7.25;;;16.70;99.90;;;;;;4909411;29;20048;-79
2023/10/19 12:12:21;;;;;;;15.27;8.43;;;16.70;99.90;;;;;;4902910;29;20037;-82
2023/10/19 12:15:00;;;;;;;13.77;7.90;;;16.70;99.90;;;;;;4889648;29;20104;-80
2023/10/19 12:17:30;;;;;;;13.43;7.70;;;16.70;99.90;;;;;;4873817;29;20033;-80
2023/10/19 12:20:31;;;;;;;11.20;8.25;;;16.50;99.90;;;;;;4877165;29;20044;-81
2023/10/19 12:22:58;;;;;;;12.35;7.85;;;16.40;99.90;;;;;;4858970;29;20391;-82
2023/10/19 12:25:49;;;;;;;12.18;7.13;;;16.40;99.90;;;;;;4877638;29;20073;-82
2023/10/19 12:28:59;;;;;;;10.55;6.85;;;16.30;99.90;;;;;;4884834;29;20099;-82
2023/10/19 12:32:13;;;;;;;11.50;7.15;;;16.40;99.90;;;;;;4870994;29;20094;-83
2023/10/19 12:35:08;;;;;;;;;;;;;;;;;;;;;
2023/10/19 12:37:56;;;;;;;10.25;7.43;;;16.50;99.90;;;;;;4870235;29;20044;-82
2023/10/19 12:43:36;;;;;;;12.07;6.68;;;16.70;99.90;;;;;;4841058;29;20241;-83
2023/10/19 12:46:24;;;;;;;13.50;6.57;;;16.70;99.90;;;;;;4843514;29;20400;-84
2023/10/19 12:49:58;;;;;;;12.18;6.72;;;16.60;99.90;;;;;;4840165;29;20044;-82
2023/10/19 12:52:58;;;;;;;10.57;5.78;;;16.40;99.90;;;;;;4796727;29;20063;-81
2023/10/19 12:55:37;;;;;;;10.52;5.85;;;16.40;99.90;;;;;;4781832;30;20327;-80
2023/10/19 12:58:08;;;;;;;6.57;5.13;;;16.30;99.90;;;;;;4783055;30;20333;-78
2023/10/19 13:00:56;;;;;;;8.30;5.88;;;16.30;99.90;;;;;;4848569;29;20069;-79
2023/10/19 13:03:31;;;;;;;7.18;5.15;;;16.30;99.90;;;;;;4849964;29;20034;-77
2023/10/19 13:05:58;;;;;;;8.43;5.07;;;16.30;99.90;;;;;;4880948;29;20089;-80
2023/10/19 13:08:46;;;;;;;8.68;5.95;;;16.30;99.90;;;;;;4873759;29;20044;-77
2023/10/19 13:14:34;;;;;;;7.47;5.50;;;16.30;99.90;;;;;;4891346;29;20238;-82
2023/10/19 13:17:00;;;;;;;9.25;5.30;;;16.20;99.90;;;;;;4890777;29;20095;-81
2023/10/19 13:19:26;;;;;;;6.65;4.72;;;16.30;99.90;;;;;;4890875;29;20029;-81
2023/10/19 13:22:07;;;;;;;7.32;4.88;;;16.30;99.90;;;;;;4892286;29;20101;-81
2023/10/19 13:24:45;;;;;;;7.63;5.07;;;16.50;99.90;;;;;;4891436;29;20449;-84
2023/10/19 13:27:11;;;;;;;6.75;5.30;;;16.50;99.90;;;;;;4891843;29;20047;-78
2023/10/19 13:29:39;;;;;;;7.70;4.65;;;16.60;99.90;;;;;;4890926;29;20037;-81
2023/10/19 13:32:08;;;;;;;6.50;4.90;;;16.70;99.90;;;;;;4892302;29;20032;-79
2023/10/19 13:34:38;;;;;;;6.65;4.35;;;16.70;99.90;;;;;;4891193;29;20099;-78
2023/10/19 13:37:24;;;;;;;7.57;4.10;;;16.70;99.90;;;;;;4890855;29;20342;-78
2023/10/19 13:40:00;;;;;;;5.90;4.18;;;16.70;99.90;;;;;;4891461;29;20058;-78
2023/10/19 13:42:26;;;;;;;7.43;4.10;;;16.70;99.90;;;;;;4908049;29;20056;-76
2023/10/19 13:44:56;;;;;;;7.15;4.20;;;16.80;99.90;;;;;;4876170;29;20037;-81
2023/10/19 13:47:22;;;;;;;6.55;4.20;;;16.70;99.90;;;;;;4891003;29;20024;-80
2023/10/19 15:47:35;;;;;;;7.10;4.45;;;16.20;99.90;;;;;;4852878;29;20021;-83
2023/10/19 16:02:02;;;;;;;7.70;5.75;;;16.00;99.90;;;;;;4799236;30;20118;-80
2023/10/19 16:08:01;;;;;;;9.15;6.03;;;15.80;99.90;;;;;;4797778;30;20042;-82
2023/10/19 16:10:51;;;;;;;8.05;6.25;;;15.80;99.90;;;;;;4783452;30;20043;-82
2023/10/19 16:25:56;;;;;;;6.55;4.25;;;15.70;99.90;;;;;;4689258;30;20244;-81
2023/10/19 16:39:20;;;;;;;11.50;7.22;;;15.60;99.90;;;;;;4792270;30;20190;-80
2023/10/19 16:42:23;;;;;;;10.43;7.43;;;15.50;99.90;;;;;;4784123;30;20408;-82
2023/10/19 16:44:58;;;;;;;11.20;7.57;;;15.50;99.90;;;;;;4762047;30;20323;-80
2023/10/19 16:47:56;;;;;;;9.40;7.30;;;15.50;99.90;;;;;;4779443;30;20075;-80
2023/10/19 16:50:41;;;;;;;11.10;7.68;;;15.40;99.90;;;;;;4759288;30;20114;-83
2023/10/19 16:54:13;;;;;;;;;;;;;;;;;;;;;
2023/10/19 17:47:58;;;;;;;10.85;6.50;;;15.40;99.90;;;;;;4947075;23;20217;-81
2023/10/19 18:06:36;;;;;;;12.57;8.30;;;15.20;99.90;;;;;;4797108;30;20046;-83
2023/10/19 19:19:02;;;;;;;12.70;9.23;;;15.00;99.90;;;;;;4890319;29;20312;-83
2023/10/19 19:41:56;;;;;;;13.32;10.27;;;14.80;99.90;;;;;;5358244;23;20202;-82
2023/10/19 19:44:44;;;;;;;12.68;9.70;;;14.80;99.90;;;;;;4931851;29;20035;-80
2023/10/19 21:30:56;;;;;;;;;;;;;;;;;;;;;
2023/10/19 21:34:35;;;;;;;17.85;11.77;;;14.40;99.90;;;;;;4945117;29;20038;-81
2023/10/19 21:45:17;;;;;;;17.48;12.23;;;14.30;99.90;;;;;;4922478;29;20161;-81
2023/10/19 21:48:22;;;;;;;17.58;12.25;;;14.20;99.90;;;;;;4944063;29;20035;-80
2023/10/19 21:56:02;;;;;;;;;;;;;;;;;;;;;
2023/10/19 22:14:39;;;;;;;19.92;14.45;;;13.90;99.90;;;;;;4741594;30;20051;-81
2023/10/19 22:18:25;;;;;;;21.77;15.10;;;13.90;99.90;;;;;;4755248;30;20028;-80
2023/10/19 22:21:31;;;;;;;18.80;13.98;;;13.90;99.90;;;;;;4724404;30;20045;-82
2023/10/19 22:33:30;;;;;;;15.68;12.35;;;14.00;99.90;;;;;;4755806;30;20063;-81
2023/10/19 22:45:33;;;;;;;;;;;;;;;;;;;;;
2023/10/19 22:48:25;;;;;;;18.52;12.05;;;14.00;99.90;;;;;;4762772;30;20068;-82
